Time;durP1;ratioP1;P1;durP2;ratioP2;P2;SDS_P1;SDS_P2;PMS_P1;PMS_P2;Temp;Humidity;BMP_temperature;BMP_pressure;BME280_temperature;BME280_humidity;BME280_pressure;Samples;Min_cycle;Max_cycle;Signal;HPM_P1;HPM_P2
2023/02/26 00:01:16;;;;;;;;;;;;;;;20.90;38.36;99602.25;106169;1282;62673;-80
2023/02/26 00:03:41;;;;;;;;;;;;;;;20.90;38.32;99600.13;106113;1282;62076;-79
2023/02/26 00:06:07;;;;;;;;;;;;;;;20.90;38.49;99595.27;106108;1282;62040;-79
2023/02/26 00:08:32;;;;;;;;;;;;;;;20.91;38.27;99586.81;106076;1283;62098;-79
2023/02/26 00:11:21;;;;;;;;;;;;;;;20.90;38.32;99581.48;106146;1282;62175;-79
2023/02/26 00:13:47;;;;;;;;;;;;;;;20.90;38.42;99576.13;105516;1288;76548;-80
2023/02/26 00:16:26;;;;;;;;;;;;;;;20.90;38.38;99576.11;105386;1289;62096;-80
2023/02/26 00:18:53;;;;;;;;;;;;;;;20.90;38.28;99577.73;105386;1288;62013;-80
2023/02/26 00:21:20;;;;;;;;;;;;;;;20.91;38.37;99585.74;105322;1288;73128;-80
2023/02/26 00:23:45;;;;;;;;;;;;;;;20.91;38.36;99584.31;105401;1288;62117;-80
2023/02/26 00:26:11;;;;;;;;;;;;;;;20.91;38.31;99575.20;105283;1290;62156;-79
2023/02/26 00:28:37;;;;;;;;;;;;;;;20.90;38.41;99562.88;105243;1290;60759;-79
2023/02/26 00:31:02;;;;;;;;;;;;;;;20.91;38.42;99565.16;105036;1291;62148;-79
2023/02/26 00:33:28;;;;;;;;;;;;;;;20.91;38.52;99561.06;105316;1291;62069;-79
2023/02/26 00:35:55;;;;;;;;;;;;;;;20.91;38.50;99564.44;105105;1290;76076;-79
2023/02/26 00:38:21;;;;;;;;;;;;;;;20.90;38.34;99565.73;105268;1291;62085;-79
2023/02/26 00:40:47;;;;;;;;;;;;;;;20.90;38.40;99561.30;105257;1291;62092;-79
2023/02/26 00:43:17;;;;;;;;;;;;;;;20.91;38.49;99558.92;105173;1291;62445;-80
2023/02/26 00:46:00;;;;;;;;;;;;;;;20.91;38.40;99555.89;105309;1291;75057;-79
2023/02/26 00:48:44;;;;;;;;;;;;;;;20.91;38.40;99548.19;105275;1290;61989;-80
2023/02/26 00:51:33;;;;;;;;;;;;;;;20.91;38.36;99551.40;105399;1285;62235;-80
2023/02/26 00:54:03;;;;;;;;;;;;;;;20.91;38.58;99550.52;105632;1285;73531;-80
2023/02/26 00:56:29;;;;;;;;;;;;;;;20.91;38.32;99547.27;105821;1285;76034;-80
2023/02/26 00:58:54;;;;;;;;;;;;;;;20.91;38.32;99539.77;106056;1282;62055;-80
2023/02/26 01:01:20;;;;;;;;;;;;;;;20.91;38.34;99546.39;106070;1282;62187;-80
2023/02/26 01:03:46;;;;;;;;;;;;;;;20.91;38.38;99538.31;106004;1282;62289;-80
2023/02/26 01:06:12;;;;;;;;;;;;;;;20.91;38.43;99532.77;106063;1283;62076;-80
2023/02/26 01:08:43;;;;;;;;;;;;;;;20.91;38.44;99531.73;106082;1281;62103;-80
2023/02/26 01:11:09;;;;;;;;;;;;;;;20.91;38.48;99530.44;106096;1282;62028;-79
2023/02/26 01:13:35;;;;;;;;;;;;;;;20.91;38.39;99530.46;106034;1282;62997;-79
2023/02/26 01:16:10;;;;;;;;;;;;;;;20.91;38.37;99528.85;106041;1282;62078;-79
2023/02/26 01:18:41;;;;;;;;;;;;;;;20.91;38.43;99528.29;106168;1282;76095;-80
2023/02/26 01:21:07;;;;;;;;;;;;;;;20.91;38.36;99517.79;106066;1282;61967;-80
2023/02/26 01:23:35;;;;;;;;;;;;;;;20.91;38.41;99526.52;106064;1282;62038;-80
2023/02/26 01:26:24;;;;;;;;;;;;;;;20.91;38.44;99527.58;106075;1282;73915;-79
2023/02/26 01:28:49;;;;;;;;;;;;;;;20.91;38.41;99526.52;106108;1281;75169;-80
2023/02/26 01:31:34;;;;;;;;;;;;;;;20.91;38.36;99533.98;106029;1282;62108;-80
2023/02/26 01:34:02;;;;;;;;;;;;;;;20.91;38.49;99539.55;106061;1282;62075;-80
2023/02/26 01:36:30;;;;;;;;;;;;;;;20.91;38.33;99551.88;106154;1282;74233;-80
2023/02/26 01:39:01;;;;;;;;;;;;;;;20.91;38.33;99548.84;106038;1283;76147;-79
2023/02/26 01:41:32;;;;;;;;;;;;;;;20.92;38.40;99550.77;106073;1283;61970;-80
2023/02/26 01:43:57;;;;;;;;;;;;;;;20.91;38.50;99551.52;106077;1282;61976;-79
2023/02/26 01:46:42;;;;;;;;;;;;;;;20.91;38.41;99551.16;106015;1283;62062;-79
2023/02/26 01:49:12;;;;;;;;;;;;;;;20.91;38.30;99549.94;106114;1282;76064;-79
2023/02/26 01:51:52;;;;;;;;;;;;;;;20.91;38.37;99539.73;106191;1282;61966;-80
2023/02/26 01:54:19;;;;;;;;;;;;;;;20.91;38.27;99543.31;105865;1283;61964;-80
2023/02/26 01:56:44;;;;;;;;;;;;;;;20.91;38.32;99540.44;106072;1282;72835;-80
2023/02/26 01:59:10;;;;;;;;;;;;;;;20.91;38.29;99546.38;106099;1282;62145;-80
2023/02/26 02:01:36;;;;;;;;;;;;;;;20.91;38.48;99545.84;106084;1282;62089;-80
2023/02/26 02:04:03;;;;;;;;;;;;;;;20.91;38.45;99541.36;106079;1283;62074;-80
2023/02/26 02:06:28;;;;;;;;;;;;;;;20.90;38.44;99534.79;106152;1282;61992;-80
2023/02/26 02:08:54;;;;;;;;;;;;;;;20.91;38.29;99531.17;106057;1282;62078;-80
2023/02/26 02:11:20;;;;;;;;;;;;;;;20.90;38.34;99532.47;106084;1282;62084;-80
2023/02/26 02:14:05;;;;;;;;;;;;;;;20.91;38.34;99527.61;106159;1283;61932;-80
2023/02/26 02:16:34;;;;;;;;;;;;;;;20.91;38.35;99526.02;106196;1281;62057;-80
2023/02/26 02:19:18;;;;;;;;;;;;;;;20.91;38.38;99531.53;106166;1282;72429;-80
2023/02/26 02:22:07;;;;;;;;;;;;;;;20.91;38.44;99528.85;106168;1285;75337;-80
2023/02/26 02:24:53;;;;;;;;;;;;;;;20.91;38.36;99521.89;105357;1288;62137;-80
2023/02/26 02:27:21;;;;;;;;;;;;;;;20.91;38.45;99518.30;104845;1297;62072;-80
2023/02/26 02:29:47;;;;;;;;;;;;;;;20.91;38.49;99516.87;104732;1297;72505;-80
2023/02/26 02:32:14;;;;;;;;;;;;;;;20.91;38.41;99515.10;104860;1297;62287;-80
2023/02/26 02:34:46;;;;;;;;;;;;;;;20.92;38.46;99519.85;104808;1296;61991;-79
2023/02/26 02:37:11;;;;;;;;;;;;;;;20.92;38.60;99528.41;104791;1297;62169;-79
2023/02/26 02:39:41;;;;;;;;;;;;;;;20.92;38.50;99532.73;104905;1297;62102;-79
2023/02/26 02:42:10;;;;;;;;;;;;;;;20.92;38.52;99537.04;104866;1299;77613;-79
2023/02/26 02:44:37;;;;;;;;;;;;;;;20.92;38.56;99541.30;104989;1296;61977;-79
2023/02/26 02:47:10;;;;;;;;;;;;;;;20.92;38.56;99541.63;104925;1295;63238;-80
2023/02/26 02:49:37;;;;;;;;;;;;;;;20.91;38.50;99542.58;104936;1299;62103;-80
2023/02/26 02:52:09;;;;;;;;;;;;;;;20.92;38.42;99540.42;104871;1296;74843;-80
2023/02/26 02:54:37;;;;;;;;;;;;;;;20.92;38.45;99538.77;105041;1295;61974;-80
2023/02/26 02:57:06;;;;;;;;;;;;;;;20.92;38.47;99540.58;104798;1296;62450;-80
2023/02/26 02:59:45;;;;;;;;;;;;;;;20.92;38.53;99541.98;104858;1296;73394;-80
2023/02/26 03:02:11;;;;;;;;;;;;;;;20.92;38.39;99542.19;105038;1291;76297;-80
2023/02/26 03:04:37;;;;;;;;;;;;;;;20.92;38.46;99544.36;105593;1282;62027;-80
2023/02/26 03:07:02;;;;;;;;;;;;;;;20.92;38.56;99547.75;105934;1282;62091;-80
2023/02/26 03:09:28;;;;;;;;;;;;;;;20.92;38.48;99545.23;106062;1283;62060;-80
2023/02/26 03:11:54;;;;;;;;;;;;;;;20.92;38.46;99544.48;105901;1282;60863;-80
2023/02/26 03:14:19;;;;;;;;;;;;;;;20.92;38.55;99542.35;106092;1282;62107;-80
2023/02/26 03:16:51;;;;;;;;;;;;;;;20.92;38.41;99540.77;106166;1282;62025;-80
2023/02/26 03:19:35;;;;;;;;;;;;;;;20.92;38.50;99553.13;106053;1281;61962;-80
2023/02/26 03:22:10;;;;;;;;;;;;;;;20.92;38.54;99553.28;106145;1282;72695;-80
2023/02/26 03:25:08;;;;;;;;;;;;;;;20.92;38.47;99553.59;106059;1282;75525;-79
2023/02/26 03:27:36;;;;;;;;;;;;;;;20.92;38.55;99553.65;105530;1289;62042;-80
2023/02/26 03:30:04;;;;;;;;;;;;;;;20.91;38.52;99552.95;105503;1288;62005;-80
2023/02/26 03:32:31;;;;;;;;;;;;;;;20.92;38.45;99549.16;105501;1288;72513;-80
2023/02/26 03:35:13;;;;;;;;;;;;;;;20.92;38.46;99544.34;105381;1288;74961;-80
2023/02/26 03:37:39;;;;;;;;;;;;;;;20.91;38.44;99547.05;105493;1288;62133;-80
2023/02/26 03:40:07;;;;;;;;;;;;;;;20.92;38.51;99542.55;105481;1288;61962;-80
2023/02/26 03:42:35;;;;;;;;;;;;;;;20.92;38.49;99535.35;105505;1289;73368;-80
2023/02/26 03:45:05;;;;;;;;;;;;;;;20.92;38.51;99531.96;105460;1289;75159;-80
2023/02/26 03:47:30;;;;;;;;;;;;;;;20.92;38.61;99523.72;105498;1288;61888;-80
2023/02/26 03:50:16;;;;;;;;;;;;;;;20.92;38.51;99529.29;105515;1289;62065;-80
2023/02/26 03:52:42;;;;;;;;;;;;;;;20.93;38.51;99526.21;105489;1288;72256;-80
2023/02/26 03:55:18;;;;;;;;;;;;;;;20.93;38.67;99520.66;105504;1288;62298;-80
2023/02/26 03:57:44;;;;;;;;;;;;;;;20.92;38.49;99523.36;105383;1294;62039;-80
2023/02/26 04:00:10;;;;;;;;;;;;;;;20.92;38.49;99520.14;105482;1293;62137;-80
2023/02/26 04:02:38;;;;;;;;;;;;;;;20.92;38.36;99508.16;105362;1289;62184;-80
2023/02/26 04:05:11;;;;;;;;;;;;;;;20.92;38.57;99506.02;106060;1282;61993;-79
2023/02/26 04:07:37;;;;;;;;;;;;;;;20.92;38.45;99505.65;106166;1282;62023;-79
2023/02/26 04:10:03;;;;;;;;;;;;;;;20.92;38.50;99502.09;106067;1283;62087;-79
2023/02/26 04:12:29;;;;;;;;;;;;;;;20.92;38.32;99499.59;106039;1282;62172;-79
2023/02/26 04:14:55;;;;;;;;;;;;;;;20.92;38.49;99497.09;106150;1285;62164;-79
2023/02/26 04:17:21;;;;;;;;;;;;;;;20.92;38.36;99492.80;105947;1283;62072;-80
2023/02/26 04:19:46;;;;;;;;;;;;;;;20.92;38.50;99498.17;106166;1283;62085;-80
2023/02/26 04:22:12;;;;;;;;;;;;;;;20.92;38.54;99509.83;106147;1282;62160;-80
2023/02/26 04:24:37;;;;;;;;;;;;;;;20.92;38.68;99518.90;105901;1282;72369;-80
2023/02/26 04:27:03;;;;;;;;;;;;;;;20.92;38.63;99525.52;106077;1288;62111;-80
2023/02/26 04:29:28;;;;;;;;;;;;;;;20.92;38.44;99541.65;106134;1282;62085;-79
2023/02/26 04:31:54;;;;;;;;;;;;;;;20.92;38.41;99542.16;106165;1281;62136;-79
2023/02/26 04:34:19;;;;;;;;;;;;;;;20.92;38.52;99533.21;106184;1282;62154;-79
2023/02/26 04:36:45;;;;;;;;;;;;;;;20.92;38.62;99529.80;106017;1284;73584;-79
2023/02/26 04:39:10;;;;;;;;;;;;;;;20.92;38.38;99527.67;106271;1283;62078;-79
2023/02/26 04:41:36;;;;;;;;;;;;;;;20.92;38.48;99521.97;106180;1282;62219;-79
2023/02/26 04:44:02;;;;;;;;;;;;;;;20.92;38.58;99516.08;106158;1283;61982;-79
2023/02/26 04:46:28;;;;;;;;;;;;;;;20.92;38.42;99519.60;105982;1282;62079;-80
2023/02/26 04:48:53;;;;;;;;;;;;;;;20.92;38.62;99516.41;106207;1283;62069;-80
2023/02/26 04:51:20;;;;;;;;;;;;;;;20.92;38.47;99511.55;106147;1282;76293;-80
2023/02/26 04:53:45;;;;;;;;;;;;;;;20.93;38.50;99504.34;106233;1283;62059;-80
2023/02/26 04:56:11;;;;;;;;;;;;;;;20.93;38.61;99502.20;106259;1282;62152;-80
2023/02/26 04:58:36;;;;;;;;;;;;;;;20.92;38.49;99499.75;106154;1282;62068;-80
2023/02/26 05:01:02;;;;;;;;;;;;;;;20.93;38.54;99500.45;106154;1282;62081;-80
2023/02/26 05:03:27;;;;;;;;;;;;;;;20.93;38.58;99506.70;106147;1288;62139;-80
2023/02/26 05:05:52;;;;;;;;;;;;;;;20.93;38.68;99512.96;106094;1283;62164;-80
2023/02/26 05:08:18;;;;;;;;;;;;;;;20.93;38.53;99513.47;106087;1287;62043;-79
2023/02/26 05:10:44;;;;;;;;;;;;;;;20.93;38.63;99512.23;106048;1282;62095;-79
2023/02/26 05:13:10;;;;;;;;;;;;;;;20.93;38.51;99516.19;106072;1282;62010;-79
2023/02/26 05:15:36;;;;;;;;;;;;;;;20.93;38.57;99519.40;106088;1283;62162;-79
2023/02/26 05:18:01;;;;;;;;;;;;;;;20.92;38.52;99514.23;106238;1283;62082;-79
2023/02/26 05:20:27;;;;;;;;;;;;;;;20.93;38.53;99512.96;106155;1282;61957;-79
2023/02/26 05:22:52;;;;;;;;;;;;;;;20.92;38.52;99522.28;106193;1283;62159;-79
2023/02/26 05:25:18;;;;;;;;;;;;;;;20.92;38.46;99519.06;106026;1283;62089;-79
2023/02/26 05:27:43;;;;;;;;;;;;;;;20.93;38.61;99511.52;106066;1282;62085;-79
2023/02/26 05:30:11;;;;;;;;;;;;;;;20.93;38.58;99519.20;106210;1282;62146;-79
2023/02/26 05:32:36;;;;;;;;;;;;;;;20.93;38.47;99524.77;106067;1283;62056;-80
2023/02/26 05:35:02;;;;;;;;;;;;;;;20.93;38.64;99530.47;106034;1282;62140;-80
2023/02/26 05:37:28;;;;;;;;;;;;;;;20.93;38.49;99535.67;106178;1283;62098;-80
2023/02/26 05:39:53;;;;;;;;;;;;;;;20.93;38.57;99544.55;106045;1282;62087;-80
2023/02/26 05:42:19;;;;;;;;;;;;;;;20.94;38.59;99541.30;106071;1283;62175;-80
2023/02/26 05:44:45;;;;;;;;;;;;;;;20.93;38.60;99541.31;106184;1283;62095;-80
2023/02/26 05:47:10;;;;;;;;;;;;;;;20.94;38.58;99544.50;106041;1282;72190;-80
2023/02/26 05:49:36;;;;;;;;;;;;;;;20.94;38.46;99540.95;106028;1283;62017;-80
2023/02/26 05:52:01;;;;;;;;;;;;;;;20.95;38.49;99543.57;106068;1282;62294;-80
2023/02/26 05:54:27;;;;;;;;;;;;;;;20.95;38.45;99545.89;106065;1283;62133;-80
2023/02/26 05:56:53;;;;;;;;;;;;;;;20.95;38.54;99548.41;106177;1285;62145;-80
2023/02/26 05:59:18;;;;;;;;;;;;;;;20.96;38.45;99551.54;105604;1282;72494;-80
2023/02/26 06:01:43;;;;;;;;;;;;;;;20.95;38.56;99560.20;106131;1281;62085;-80
2023/02/26 06:04:09;;;;;;;;;;;;;;;20.95;38.60;99560.92;106019;1283;62162;-80
2023/02/26 06:06:34;;;;;;;;;;;;;;;20.95;38.63;99562.84;106033;1283;62087;-80
2023/02/26 06:09:01;;;;;;;;;;;;;;;20.96;38.62;99560.84;106076;1283;62217;-80
2023/02/26 06:11:31;;;;;;;;;;;;;;;20.97;38.53;99562.19;106063;1283;73466;-80
2023/02/26 06:13:56;;;;;;;;;;;;;;;20.97;38.58;99563.80;106150;1285;75292;-80
2023/02/26 06:16:22;;;;;;;;;;;;;;;20.96;38.55;99569.89;106164;1282;62169;-80
2023/02/26 06:18:48;;;;;;;;;;;;;;;20.97;38.54;99577.52;105923;1282;62052;-80
2023/02/26 06:21:15;;;;;;;;;;;;;;;20.97;38.56;99582.15;106067;1288;62123;-80
2023/02/26 06:23:40;;;;;;;;;;;;;;;20.97;38.48;99583.39;106076;1283;62033;-80
2023/02/26 06:26:06;;;;;;;;;;;;;;;20.98;38.56;99595.84;106086;1282;62075;-80
2023/02/26 06:28:31;;;;;;;;;;;;;;;20.98;38.57;99603.90;106110;1287;61931;-79
2023/02/26 06:30:57;;;;;;;;;;;;;;;20.98;38.65;99607.98;106043;1282;62087;-79
2023/02/26 06:33:22;;;;;;;;;;;;;;;20.99;38.68;99609.39;106051;1283;62146;-79
2023/02/26 06:35:48;;;;;;;;;;;;;;;20.99;38.54;99613.13;105907;1288;62094;-80
2023/02/26 06:38:14;;;;;;;;;;;;;;;20.99;38.53;99613.10;106067;1283;62178;-80
2023/02/26 06:40:39;;;;;;;;;;;;;;;20.99;38.71;99614.17;106089;1283;62143;-80
2023/02/26 06:43:04;;;;;;;;;;;;;;;20.99;38.41;99616.48;106079;1284;62827;-80
2023/02/26 06:45:30;;;;;;;;;;;;;;;21.00;38.66;99622.88;106065;1283;62183;-80
2023/02/26 06:47:55;;;;;;;;;;;;;;;21.00;38.48;99622.34;106083;1283;62245;-80
2023/02/26 06:50:21;;;;;;;;;;;;;;;21.00;38.47;99614.84;106049;1283;62091;-80
2023/02/26 06:52:46;;;;;;;;;;;;;;;21.00;38.48;99615.90;106099;1287;62097;-80
2023/02/26 06:55:12;;;;;;;;;;;;;;;21.00;38.55;99614.63;106065;1288;62061;-80
2023/02/26 06:57:37;;;;;;;;;;;;;;;21.00;38.54;99624.99;106075;1282;62284;-80
2023/02/26 07:00:03;;;;;;;;;;;;;;;21.00;38.57;99617.65;106155;1282;62030;-80
2023/02/26 07:02:29;;;;;;;;;;;;;;;21.01;38.58;99624.44;105568;1288;667774;-80
2023/02/26 07:04:54;;;;;;;;;;;;;;;21.01;38.52;99629.08;106052;1283;62185;-79
2023/02/26 07:07:20;;;;;;;;;;;;;;;21.00;38.50;99630.50;106195;1283;62104;-80
2023/02/26 07:09:45;;;;;;;;;;;;;;;21.01;38.66;99632.98;106078;1283;62165;-80
2023/02/26 07:12:11;;;;;;;;;;;;;;;21.00;38.54;99629.42;106052;1284;62163;-80
2023/02/26 07:14:36;;;;;;;;;;;;;;;21.00;38.66;99627.29;106137;1284;62098;-80
2023/02/26 07:17:02;;;;;;;;;;;;;;;21.01;38.48;99624.41;106183;1285;61977;-80
2023/02/26 07:19:27;;;;;;;;;;;;;;;21.01;38.66;99623.30;106148;1285;62178;-80
2023/02/26 07:21:54;;;;;;;;;;;;;;;21.01;38.63;99625.85;106035;1287;72751;-80
2023/02/26 07:24:20;;;;;;;;;;;;;;;21.01;38.58;99626.19;106045;1283;62158;-79
2023/02/26 07:26:45;;;;;;;;;;;;;;;21.01;38.51;99625.48;106080;1283;62253;-79
2023/02/26 07:29:11;;;;;;;;;;;;;;;21.01;38.67;99626.90;106067;1282;62059;-79
2023/02/26 07:31:38;;;;;;;;;;;;;;;21.01;38.67;99628.50;106102;1283;61932;-80
2023/02/26 07:34:03;;;;;;;;;;;;;;;21.01;38.66;99635.29;106047;1282;62114;-80
2023/02/26 07:36:29;;;;;;;;;;;;;;;21.01;38.65;99634.91;106149;1283;62331;-80
2023/02/26 07:38:54;;;;;;;;;;;;;;;21.01;38.58;99635.63;106179;1282;62018;-80
2023/02/26 07:41:20;;;;;;;;;;;;;;;21.02;38.63;99640.06;106045;1283;62155;-79
2023/02/26 07:43:45;;;;;;;;;;;;;;;21.01;38.56;99644.05;106160;1283;62158;-79
2023/02/26 07:46:11;;;;;;;;;;;;;;;21.01;38.57;99644.94;106157;1285;62032;-79
2023/02/26 07:48:36;;;;;;;;;;;;;;;21.01;38.70;99648.84;106067;1287;62285;-79
2023/02/26 07:51:02;;;;;;;;;;;;;;;21.01;38.60;99644.75;106147;1288;61950;-80
2023/02/26 07:53:27;;;;;;;;;;;;;;;21.01;38.65;99645.29;106166;1288;62172;-80
2023/02/26 07:55:53;;;;;;;;;;;;;;;21.02;38.66;99649.56;106259;1285;62040;-80
2023/02/26 07:58:19;;;;;;;;;;;;;;;21.01;38.46;99649.21;106256;1283;62079;-80
2023/02/26 08:00:45;;;;;;;;;;;;;;;21.01;38.73;99646.72;106277;1283;62084;-80
2023/02/26 08:03:10;;;;;;;;;;;;;;;21.01;38.65;99642.80;106188;1288;62015;-80
2023/02/26 08:05:36;;;;;;;;;;;;;;;21.01;38.56;99642.09;106153;1283;62082;-80
2023/02/26 08:08:02;;;;;;;;;;;;;;;21.01;38.65;99642.45;106271;1283;62084;-80
2023/02/26 08:10:27;;;;;;;;;;;;;;;21.01;38.62;99643.73;106319;1282;62068;-80
2023/02/26 08:12:53;;;;;;;;;;;;;;;21.01;38.71;99642.48;106172;1284;62085;-80
2023/02/26 08:15:18;;;;;;;;;;;;;;;21.01;38.65;99647.45;106208;1284;62135;-80
2023/02/26 08:17:44;;;;;;;;;;;;;;;21.01;38.53;99648.53;106217;1283;62085;-80
2023/02/26 08:20:10;;;;;;;;;;;;;;;21.01;38.53;99647.83;106274;1283;62079;-80
2023/02/26 08:22:36;;;;;;;;;;;;;;;21.01;38.62;99649.07;106210;1284;62158;-80
2023/02/26 08:25:02;;;;;;;;;;;;;;;21.01;38.71;99647.83;106288;1282;62187;-80
2023/02/26 08:27:27;;;;;;;;;;;;;;;21.01;38.60;99653.20;106270;1281;62211;-81
2023/02/26 08:29:53;;;;;;;;;;;;;;;21.01;38.58;99647.65;106216;1287;62196;-81
2023/02/26 08:32:21;;;;;;;;;;;;;;;21.01;38.62;99647.11;106254;1285;73620;-80
2023/02/26 08:34:47;;;;;;;;;;;;;;;21.01;38.67;99653.73;106149;1283;75017;-80
2023/02/26 08:37:13;;;;;;;;;;;;;;;21.01;38.63;99655.84;106170;1282;62104;-80
2023/02/26 08:39:38;;;;;;;;;;;;;;;21.01;38.68;99656.02;106150;1283;62043;-80
2023/02/26 08:42:08;;;;;;;;;;;;;;;21.01;38.65;99648.87;106209;1281;62129;-80
2023/02/26 08:44:33;;;;;;;;;;;;;;;21.01;38.66;99653.00;106214;1281;75324;-80
2023/02/26 08:46:59;;;;;;;;;;;;;;;21.01;38.58;99656.18;106135;1287;62082;-80
2023/02/26 08:49:25;;;;;;;;;;;;;;;21.01;38.83;99654.97;106144;1282;62101;-80
2023/02/26 08:51:52;;;;;;;;;;;;;;;21.01;38.63;99648.20;106096;1283;62034;-80
2023/02/26 08:54:17;;;;;;;;;;;;;;;21.01;38.78;99645.30;106149;1282;62056;-80
2023/02/26 08:56:43;;;;;;;;;;;;;;;21.01;38.69;99647.45;106149;1283;62082;-80
2023/02/26 08:59:10;;;;;;;;;;;;;;;21.01;38.61;99646.54;106024;1288;62072;-80
2023/02/26 09:01:36;;;;;;;;;;;;;;;21.02;38.61;99645.80;106265;1283;61986;-80
2023/02/26 09:04:01;;;;;;;;;;;;;;;21.01;38.59;99650.67;106287;1283;62073;-80
2023/02/26 09:06:27;;;;;;;;;;;;;;;21.01;38.73;99650.11;106166;1288;62116;-80
2023/02/26 09:08:52;;;;;;;;;;;;;;;21.01;38.57;99645.30;106155;1288;62111;-80
2023/02/26 09:11:18;;;;;;;;;;;;;;;21.01;38.72;99644.38;106027;1288;62079;-80
2023/02/26 09:13:44;;;;;;;;;;;;;;;21.01;38.66;99640.64;106148;1281;62126;-80
2023/02/26 09:16:09;;;;;;;;;;;;;;;21.01;38.60;99640.27;106265;1284;62049;-80
2023/02/26 09:18:35;;;;;;;;;;;;;;;21.01;38.74;99634.19;106138;1282;62222;-80
2023/02/26 09:21:00;;;;;;;;;;;;;;;21.01;38.71;99633.82;105990;1283;62171;-80
2023/02/26 09:23:26;;;;;;;;;;;;;;;21.02;38.78;99634.27;106309;1283;62076;-80
2023/02/26 09:25:53;;;;;;;;;;;;;;;21.03;38.68;99634.61;106284;1282;62063;-80
2023/02/26 09:28:19;;;;;;;;;;;;;;;21.03;38.77;99639.07;106269;1282;72285;-80
2023/02/26 09:30:45;;;;;;;;;;;;;;;21.03;38.59;99641.16;106196;1283;62050;-80
2023/02/26 09:33:11;;;;;;;;;;;;;;;21.03;38.70;99638.14;106265;1283;62053;-80
2023/02/26 09:35:36;;;;;;;;;;;;;;;21.03;38.64;99640.96;106190;1283;62142;-81
2023/02/26 09:38:02;;;;;;;;;;;;;;;21.03;38.60;99641.13;106257;1282;62078;-80
2023/02/26 09:40:35;;;;;;;;;;;;;;;21.04;38.72;99640.53;106139;1288;62158;-80
2023/02/26 09:43:20;;;;;;;;;;;;;;;21.04;38.86;99639.48;106250;1283;61928;-80
2023/02/26 09:45:46;;;;;;;;;;;;;;;21.04;38.73;99635.01;106147;1281;62002;-80
2023/02/26 09:48:13;;;;;;;;;;;;;;;21.05;38.73;99633.34;106011;1282;62162;-80
2023/02/26 09:50:49;;;;;;;;;;;;;;;21.05;38.73;99627.61;106153;1284;62065;-80
2023/02/26 09:53:23;;;;;;;;;;;;;;;21.05;38.79;99630.64;106038;1283;60792;-80
2023/02/26 09:55:49;;;;;;;;;;;;;;;21.05;38.77;99624.88;106276;1283;61923;-80
2023/02/26 09:58:18;;;;;;;;;;;;;;;21.05;38.88;99619.88;106147;1283;61970;-80
2023/02/26 10:00:46;;;;;;;;;;;;;;;21.06;38.78;99618.92;106238;1282;75118;-80
2023/02/26 10:03:26;;;;;;;;;;;;;;;21.06;38.95;99618.02;106276;1282;62045;-80
2023/02/26 10:06:11;;;;;;;;;;;;;;;21.06;38.91;99618.58;106150;1282;61968;-80
2023/02/26 10:08:41;;;;;;;;;;;;;;;21.06;38.86;99622.50;106232;1283;72291;-80
2023/02/26 10:11:09;;;;;;;;;;;;;;;21.07;38.82;99616.34;106246;1285;75954;-80
2023/02/26 10:13:36;;;;;;;;;;;;;;;21.07;38.88;99609.88;106167;1284;60755;-80
2023/02/26 10:16:04;;;;;;;;;;;;;;;21.07;38.77;99604.66;106276;1285;61953;-80
2023/02/26 10:18:31;;;;;;;;;;;;;;;21.08;38.86;99592.46;106086;1282;71836;-80
2023/02/26 10:20:58;;;;;;;;;;;;;;;21.08;39.12;99592.59;106257;1285;74983;-80
2023/02/26 10:23:33;;;;;;;;;;;;;;;21.09;38.77;99593.64;106291;1282;61967;-80
2023/02/26 10:26:18;;;;;;;;;;;;;;;21.09;38.99;99593.95;106154;1282;62057;-80
2023/02/26 10:29:02;;;;;;;;;;;;;;;21.09;39.03;99591.04;106258;1282;72425;-80
2023/02/26 10:31:40;;;;;;;;;;;;;;;21.10;38.90;99587.83;106282;1282;75679;-80
2023/02/26 10:34:27;;;;;;;;;;;;;;;21.10;38.94;99595.09;106273;1286;62048;-80
2023/02/26 10:37:12;;;;;;;;;;;;;;;21.11;38.98;99590.59;106184;1282;61427;-80
2023/02/26 10:40:00;;;;;;;;;;;;;;;21.10;38.97;99590.26;106294;1282;72543;-80
2023/02/26 10:42:27;;;;;;;;;;;;;;;21.12;39.21;99591.95;106282;1283;75026;-80
2023/02/26 10:44:56;;;;;;;;;;;;;;;21.12;39.07;99589.07;106184;1283;61794;-80
2023/02/26 10:47:21;;;;;;;;;;;;;;;21.13;39.08;99585.10;106395;1282;61862;-80
2023/02/26 10:49:47;;;;;;;;;;;;;;;21.13;39.18;99585.20;106273;1285;62152;-80
2023/02/26 10:52:16;;;;;;;;;;;;;;;21.13;39.05;99586.27;106142;1282;62078;-80
2023/02/26 10:54:45;;;;;;;;;;;;;;;21.14;39.13;99585.14;106174;1282;62107;-80
2023/02/26 10:57:19;;;;;;;;;;;;;;;21.14;38.96;99584.08;106167;1282;61956;-80
2023/02/26 10:59:45;;;;;;;;;;;;;;;21.14;39.14;99586.16;105971;1282;72590;-80
2023/02/26 11:02:34;;;;;;;;;;;;;;;21.15;39.18;99588.83;106185;1286;62094;-80
2023/02/26 11:04:59;;;;;;;;;;;;;;;21.14;39.11;99586.87;106149;1283;61925;-80
2023/02/26 11:07:25;;;;;;;;;;;;;;;21.15;39.07;99582.52;105983;1283;62172;-80
2023/02/26 11:09:50;;;;;;;;;;;;;;;21.15;39.13;99580.35;106193;1283;60101;-80
2023/02/26 11:12:19;;;;;;;;;;;;;;;21.16;39.27;99576.56;106266;1282;62139;-80
2023/02/26 11:14:46;;;;;;;;;;;;;;;21.16;39.10;99574.05;106139;1283;62008;-80
2023/02/26 11:17:13;;;;;;;;;;;;;;;21.16;39.16;99576.54;106169;1282;62031;-80
2023/02/26 11:19:40;;;;;;;;;;;;;;;21.16;39.04;99575.95;106263;1281;72700;-80
2023/02/26 11:22:08;;;;;;;;;;;;;;;21.17;39.04;99578.80;106144;1283;76216;-80
2023/02/26 11:24:35;;;;;;;;;;;;;;;21.17;39.03;99571.65;106141;1282;62063;-80
2023/02/26 11:27:02;;;;;;;;;;;;;;;21.17;39.02;99573.25;106183;1282;61919;-80
2023/02/26 11:29:32;;;;;;;;;;;;;;;21.17;39.12;99568.56;105991;1282;72299;-80
2023/02/26 11:31:59;;;;;;;;;;;;;;;21.17;39.14;99570.15;106246;1282;75401;-80
2023/02/26 11:34:25;;;;;;;;;;;;;;;21.18;39.18;99571.73;106203;1282;61971;-80
2023/02/26 11:36:52;;;;;;;;;;;;;;;21.18;39.16;99571.70;106248;1282;62922;-80
2023/02/26 11:39:25;;;;;;;;;;;;;;;21.18;39.08;99571.71;106156;1283;73315;-80
2023/02/26 11:41:52;;;;;;;;;;;;;;;21.18;39.22;99578.15;106237;1283;76312;-80
2023/02/26 11:44:37;;;;;;;;;;;;;;;21.18;39.21;99572.41;106166;1282;61989;-80
2023/02/26 11:47:05;;;;;;;;;;;;;;;21.18;39.22;99565.38;106289;1282;62109;-80
2023/02/26 11:49:31;;;;;;;;;;;;;;;21.18;39.17;99575.60;106173;1282;74879;-80
2023/02/26 11:52:20;;;;;;;;;;;;;;;21.18;39.05;99579.87;106155;1282;62065;-80
2023/02/26 11:54:45;;;;;;;;;;;;;;;21.19;39.16;99578.20;106056;1282;62450;-80
2023/02/26 11:57:15;;;;;;;;;;;;;;;21.19;39.11;99578.77;106167;1282;62071;-80
2023/02/26 11:59:40;;;;;;;;;;;;;;;21.20;39.14;99579.75;106225;1282;72560;-80
2023/02/26 12:02:12;;;;;;;;;;;;;;;21.20;39.03;99580.30;106271;1282;62184;-80
2023/02/26 12:04:40;;;;;;;;;;;;;;;21.20;39.19;99575.13;106127;1282;62050;-80
2023/02/26 12:07:07;;;;;;;;;;;;;;;21.20;39.03;99571.86;106185;1283;62065;-80
2023/02/26 12:09:33;;;;;;;;;;;;;;;21.20;38.99;99570.43;106180;1286;72355;-80
2023/02/26 12:12:31;;;;;;;;;;;;;;;21.20;39.22;99571.84;106259;1282;62070;-80
2023/02/26 12:15:15;;;;;;;;;;;;;;;21.21;39.05;99578.58;105512;1290;62357;-80
2023/02/26 12:17:41;;;;;;;;;;;;;;;21.21;39.11;99580.02;105314;1288;62038;-80
2023/02/26 12:20:25;;;;;;;;;;;;;;;21.21;39.06;99585.52;105599;1288;62238;-80
2023/02/26 12:23:11;;;;;;;;;;;;;;;21.22;39.11;99592.75;105613;1290;74898;-80
2023/02/26 12:25:52;;;;;;;;;;;;;;;21.23;39.05;99590.36;105634;1288;62133;-80
2023/02/26 12:28:36;;;;;;;;;;;;;;;21.23;39.08;99591.27;105575;1288;61001;-81
2023/02/26 12:31:08;;;;;;;;;;;;;;;21.24;38.97;99592.45;105598;1288;73475;-80
2023/02/26 12:33:33;;;;;;;;;;;;;;;21.24;39.06;99593.53;105601;1289;75271;-80
2023/02/26 12:36:04;;;;;;;;;;;;;;;21.24;39.17;99592.76;105453;1288;62090;-80
2023/02/26 12:38:36;;;;;;;;;;;;;;;21.24;39.09;99594.90;105476;1289;61920;-80
2023/02/26 12:41:20;;;;;;;;;;;;;;;21.25;39.05;99594.35;105615;1288;72541;-80
2023/02/26 12:43:49;;;;;;;;;;;;;;;21.25;39.21;99598.24;105603;1289;76015;-80